Time;durP1;ratioP1;P1;durP2;ratioP2;P2;SDS_P1;SDS_P2;PMS_P1;PMS_P2;Temp;Humidity;BMP_temperature;BMP_pressure;BME280_temperature;BME280_humidity;BME280_pressure;Samples;Min_cycle;Max_cycle;Signal;HPM_P1;HPM_P2
2024/02/28 00:01:50;;;;;;;2.75;1.13;;;3.30;93.20;;;;;;5092131;28;20145;-71
2024/02/28 00:04:16;;;;;;;2.75;1.20;;;3.30;93.20;;;;;;5092071;28;20036;-71
2024/02/28 00:06:42;;;;;;;1.90;0.93;;;3.30;93.20;;;;;;5092078;28;20516;-71
2024/02/28 00:09:08;;;;;;;2.13;1.10;;;3.40;93.20;;;;;;5091757;28;20047;-71
2024/02/28 00:11:34;;;;;;;3.25;1.35;;;3.30;93.20;;;;;;5073631;28;20108;-71
2024/02/28 00:14:01;;;;;;;2.47;0.95;;;3.40;93.30;;;;;;5091923;28;20045;-71
2024/02/28 00:16:27;;;;;;;1.95;0.98;;;3.30;93.20;;;;;;5074426;28;20542;-71
2024/02/28 00:18:52;;;;;;;1.95;1.10;;;3.30;93.20;;;;;;5091569;28;20079;-71
2024/02/28 00:21:18;;;;;;;1.63;0.98;;;3.30;93.20;;;;;;5056822;28;20477;-71
2024/02/28 00:23:44;;;;;;;2.03;1.02;;;3.30;93.20;;;;;;5091796;28;20063;-71
2024/02/28 00:26:12;;;;;;;3.30;1.40;;;3.20;93.20;;;;;;5075543;28;20044;-71
2024/02/28 00:28:37;;;;;;;2.35;1.30;;;3.20;93.30;;;;;;5076158;28;20062;-71
2024/02/28 00:31:03;;;;;;;1.38;0.82;;;3.30;93.30;;;;;;5075652;28;20040;-71
2024/02/28 00:33:29;;;;;;;2.55;1.15;;;3.20;93.30;;;;;;5095223;28;20036;-71
2024/02/28 00:35:54;;;;;;;2.22;1.13;;;3.20;93.30;;;;;;5076081;28;20054;-71
2024/02/28 00:38:20;;;;;;;2.15;1.00;;;3.20;93.30;;;;;;5094848;28;20036;-71
2024/02/28 00:40:46;;;;;;;2.40;1.30;;;3.20;93.30;;;;;;5094849;28;20032;-72
2024/02/28 00:43:12;;;;;;;2.55;1.17;;;3.10;93.30;;;;;;5095418;28;20393;-72
2024/02/28 00:45:38;;;;;;;2.92;1.25;;;3.10;93.30;;;;;;5060027;28;20044;-71
2024/02/28 00:48:04;;;;;;;2.03;1.10;;;3.10;93.30;;;;;;5076913;28;20081;-71
2024/02/28 00:50:30;;;;;;;2.83;1.33;;;3.10;93.40;;;;;;5094620;28;20089;-72
2024/02/28 00:52:55;;;;;;;1.77;0.98;;;3.10;93.40;;;;;;5094473;28;20036;-71
2024/02/28 00:55:21;;;;;;;2.28;1.10;;;3.00;93.40;;;;;;5076469;28;20059;-72
2024/02/28 00:57:47;;;;;;;1.67;0.88;;;3.10;93.40;;;;;;5094551;28;20036;-72
2024/02/28 01:00:13;;;;;;;1.40;0.82;;;3.10;93.40;;;;;;5076548;28;20044;-72
2024/02/28 01:02:40;;;;;;;1.80;1.05;;;3.10;93.50;;;;;;5075967;28;20039;-71
2024/02/28 01:05:06;;;;;;;0.73;0.50;;;3.10;93.40;;;;;;5094662;28;20043;-71
2024/02/28 01:07:32;;;;;;;1.48;0.90;;;3.20;93.40;;;;;;5075994;28;20106;-71
2024/02/28 01:09:57;;;;;;;1.65;0.90;;;3.10;93.30;;;;;;5094710;28;20044;-72
2024/02/28 01:12:23;;;;;;;2.22;1.20;;;3.10;93.30;;;;;;5074728;28;20072;-72
2024/02/28 01:14:49;;;;;;;1.58;0.90;;;3.10;93.30;;;;;;5094584;28;20040;-71
2024/02/28 01:17:14;;;;;;;2.72;1.38;;;3.20;93.40;;;;;;5094407;28;20557;-71
2024/02/28 01:19:40;;;;;;;1.98;0.88;;;3.10;93.30;;;;;;5094311;28;20074;-71
2024/02/28 01:22:05;;;;;;;2.47;1.25;;;3.20;93.30;;;;;;5094026;28;20040;-72
2024/02/28 01:24:33;;;;;;;2.25;1.15;;;3.20;93.30;;;;;;5093981;28;20039;-72
2024/02/28 01:26:59;;;;;;;1.40;0.90;;;3.20;93.30;;;;;;5093938;28;20073;-72
2024/02/28 01:29:25;;;;;;;1.30;0.80;;;3.10;93.30;;;;;;5094215;28;20126;-71
2024/02/28 01:31:51;;;;;;;2.17;0.93;;;3.10;93.30;;;;;;5093848;28;20119;-72
2024/02/28 01:34:17;;;;;;;1.90;0.90;;;3.10;93.30;;;;;;5075651;28;20036;-72
2024/02/28 01:36:42;;;;;;;3.10;1.40;;;3.10;93.30;;;;;;5073792;28;20504;-71
2024/02/28 01:39:08;;;;;;;4.75;1.42;;;3.10;93.30;;;;;;5093698;28;20081;-71
2024/02/28 01:41:34;;;;;;;1.85;0.98;;;3.20;93.40;;;;;;5094151;28;20139;-72
2024/02/28 01:44:00;;;;;;;1.73;1.00;;;3.10;93.30;;;;;;5093875;28;20046;-71
2024/02/28 01:46:27;;;;;;;2.13;1.10;;;3.10;93.30;;;;;;5093581;28;20044;-72
2024/02/28 01:48:54;;;;;;;2.60;1.20;;;3.10;93.30;;;;;;5076044;28;20048;-71
2024/02/28 01:51:23;;;;;;;1.65;0.90;;;3.10;93.40;;;;;;5093682;28;20048;-72
2024/02/28 01:53:52;;;;;;;1.00;0.70;;;3.10;93.30;;;;;;5093759;28;20089;-71
2024/02/28 01:56:18;;;;;;;3.63;1.20;;;3.00;93.40;;;;;;5074877;28;20045;-71
2024/02/28 01:58:47;;;;;;;3.67;1.50;;;3.10;93.40;;;;;;5075383;28;20481;-71
2024/02/28 02:01:14;;;;;;;3.45;1.50;;;3.10;93.30;;;;;;5075186;28;20400;-71
2024/02/28 02:03:40;;;;;;;4.40;1.75;;;3.10;93.30;;;;;;5089623;28;20040;-72
2024/02/28 02:06:06;;;;;;;4.50;1.58;;;3.00;93.40;;;;;;5093591;28;20508;-71
2024/02/28 02:08:33;;;;;;;4.00;1.73;;;3.00;93.40;;;;;;5093144;28;20489;-71
2024/02/28 02:10:59;;;;;;;3.25;1.35;;;3.00;93.40;;;;;;5093241;28;20040;-71
2024/02/28 02:13:25;;;;;;;3.15;1.33;;;3.00;93.40;;;;;;5075228;28;20469;-71
2024/02/28 02:15:50;;;;;;;2.65;1.10;;;3.00;93.40;;;;;;5074942;28;20048;-71
2024/02/28 02:18:16;;;;;;;1.73;0.93;;;3.00;93.50;;;;;;5093652;28;20032;-72
2024/02/28 02:20:46;;;;;;;3.13;1.45;;;3.00;93.40;;;;;;5075104;28;20040;-72
2024/02/28 02:23:14;;;;;;;2.40;1.30;;;2.90;93.40;;;;;;5089720;28;20543;-72
2024/02/28 02:25:45;;;;;;;2.15;1.10;;;2.90;93.40;;;;;;5093332;28;20036;-71
2024/02/28 02:28:11;;;;;;;1.23;0.77;;;3.00;93.40;;;;;;5058310;28;20485;-71
2024/02/28 02:30:38;;;;;;;3.00;1.30;;;2.90;93.40;;;;;;5093125;28;20094;-72
2024/02/28 02:33:04;;;;;;;2.58;1.35;;;2.90;93.40;;;;;;5092664;28;20401;-72
2024/02/28 02:35:30;;;;;;;2.60;1.20;;;3.00;93.40;;;;;;5092733;28;20057;-71
2024/02/28 02:37:55;;;;;;;3.55;1.65;;;2.90;93.50;;;;;;5092896;28;20040;-71
2024/02/28 02:40:21;;;;;;;2.92;1.48;;;2.80;93.50;;;;;;5093062;28;20520;-72
2024/02/28 02:42:47;;;;;;;3.05;1.05;;;2.90;93.50;;;;;;5092690;28;20496;-72
2024/02/28 02:45:12;;;;;;;3.92;1.25;;;2.90;93.50;;;;;;5092779;28;20039;-72
2024/02/28 02:47:38;;;;;;;4.45;1.75;;;2.90;93.50;;;;;;5092484;28;20052;-71
2024/02/28 02:50:05;;;;;;;3.35;1.45;;;2.80;93.40;;;;;;5091715;28;20492;-71
2024/02/28 02:52:31;;;;;;;2.90;1.30;;;2.80;93.50;;;;;;5075208;28;20431;-72
2024/02/28 02:54:56;;;;;;;2.50;1.30;;;2.80;93.40;;;;;;5092270;28;20044;-72
2024/02/28 02:57:22;;;;;;;1.90;1.00;;;2.80;93.70;;;;;;5074388;28;20020;-72
2024/02/28 02:59:47;;;;;;;1.75;0.80;;;2.80;93.50;;;;;;5092451;28;20036;-72
2024/02/28 03:02:13;;;;;;;1.80;1.10;;;2.80;93.50;;;;;;5074151;28;20036;-72
2024/02/28 03:04:39;;;;;;;2.33;0.98;;;2.70;93.50;;;;;;5074286;28;20389;-72
2024/02/28 03:07:05;;;;;;;2.75;1.48;;;2.80;93.50;;;;;;5072777;28;20072;-71
2024/02/28 03:09:30;;;;;;;1.40;0.95;;;2.80;93.50;;;;;;5074579;28;20092;-71
2024/02/28 03:11:56;;;;;;;1.65;1.02;;;2.80;93.60;;;;;;5074464;28;20036;-72
2024/02/28 03:14:25;;;;;;;1.85;0.90;;;2.80;93.60;;;;;;5074154;28;20039;-72
2024/02/28 03:16:50;;;;;;;1.65;0.80;;;2.80;93.50;;;;;;5092657;28;20097;-72
2024/02/28 03:19:16;;;;;;;1.50;0.88;;;2.80;93.50;;;;;;5092259;28;20040;-72
2024/02/28 03:21:42;;;;;;;1.23;0.80;;;2.80;93.60;;;;;;5073818;28;20052;-72
2024/02/28 03:24:07;;;;;;;0.90;0.60;;;2.80;93.50;;;;;;5073786;28;20454;-72
2024/02/28 03:26:33;;;;;;;2.00;1.05;;;2.90;93.60;;;;;;5092324;28;20499;-71
2024/02/28 03:28:59;;;;;;;1.90;1.08;;;2.80;93.50;;;;;;5092302;28;20035;-71
2024/02/28 03:31:26;;;;;;;1.55;0.98;;;2.70;93.50;;;;;;5074262;28;20040;-72
2024/02/28 03:33:51;;;;;;;1.95;0.95;;;2.70;93.60;;;;;;5073873;28;20040;-71
2024/02/28 03:36:17;;;;;;;1.38;0.90;;;2.80;93.60;;;;;;5092270;28;20043;-72
2024/02/28 03:38:43;;;;;;;1.38;0.90;;;2.70;93.60;;;;;;5073155;28;20055;-72
2024/02/28 03:41:09;;;;;;;2.55;1.30;;;2.70;93.60;;;;;;5091835;28;20513;-72
2024/02/28 03:43:35;;;;;;;1.30;0.90;;;2.80;93.60;;;;;;5073625;28;20536;-71
2024/02/28 03:46:01;;;;;;;2.22;1.08;;;2.80;93.60;;;;;;5091899;28;20130;-71
2024/02/28 03:48:27;;;;;;;1.83;1.00;;;2.90;93.60;;;;;;5092270;28;20059;-72
2024/02/28 03:50:52;;;;;;;2.55;1.30;;;2.90;93.50;;;;;;5072213;28;20501;-72
2024/02/28 03:53:18;;;;;;;1.95;0.90;;;2.90;93.50;;;;;;5074085;28;20036;-71
2024/02/28 03:55:44;;;;;;;1.70;0.80;;;2.90;93.60;;;;;;5073480;28;20362;-71
2024/02/28 03:58:10;;;;;;;1.48;0.93;;;2.90;93.60;;;;;;5072338;28;20122;-72
2024/02/28 04:00:36;;;;;;;1.45;0.95;;;2.90;93.60;;;;;;5075264;28;20044;-72
2024/02/28 04:03:03;;;;;;;1.17;0.90;;;2.90;93.50;;;;;;5095230;28;20044;-71
2024/02/28 04:05:29;;;;;;;2.55;1.13;;;2.80;93.50;;;;;;5095612;28;20040;-72
2024/02/28 04:07:55;;;;;;;1.40;0.85;;;2.80;93.50;;;;;;5076996;28;20497;-72
2024/02/28 04:10:20;;;;;;;1.55;1.00;;;2.80;93.60;;;;;;5095356;28;20036;-72
2024/02/28 04:12:46;;;;;;;0.70;0.50;;;2.80;93.60;;;;;;5094873;28;20508;-72
2024/02/28 04:15:13;;;;;;;1.30;0.75;;;2.80;93.50;;;;;;5095021;28;20048;-72
2024/02/28 04:17:39;;;;;;;1.13;0.80;;;2.80;93.50;;;;;;5076846;28;20346;-72
2024/02/28 04:20:10;;;;;;;2.38;1.30;;;2.70;93.60;;;;;;5094920;28;20047;-72
2024/02/28 04:22:35;;;;;;;1.95;1.10;;;2.70;93.60;;;;;;5095099;28;20121;-72
2024/02/28 04:25:01;;;;;;;1.60;1.00;;;2.70;93.60;;;;;;5060079;28;20085;-72
2024/02/28 04:27:26;;;;;;;1.70;0.98;;;2.70;93.60;;;;;;5094807;28;20123;-72
2024/02/28 04:29:52;;;;;;;1.30;0.80;;;2.80;93.60;;;;;;5058060;28;20036;-71
2024/02/28 04:32:18;;;;;;;1.23;0.80;;;2.80;93.60;;;;;;5094596;28;20090;-72
2024/02/28 04:34:44;;;;;;;1.70;0.98;;;2.80;93.60;;;;;;5077241;28;20093;-71
2024/02/28 04:37:09;;;;;;;1.65;0.90;;;2.70;93.60;;;;;;5076461;28;20477;-71
2024/02/28 04:39:35;;;;;;;1.13;0.80;;;2.80;93.70;;;;;;5094546;28;20044;-72
2024/02/28 04:42:01;;;;;;;1.38;0.82;;;2.80;93.70;;;;;;5094761;28;20044;-72
2024/02/28 04:44:26;;;;;;;0.85;0.73;;;2.80;93.60;;;;;;5076637;28;20047;-71
2024/02/28 04:46:52;;;;;;;1.45;0.88;;;2.80;93.60;;;;;;5076495;28;20048;-71
2024/02/28 04:49:17;;;;;;;1.35;0.90;;;2.80;93.60;;;;;;5076195;28;20048;-72
2024/02/28 04:51:43;;;;;;;0.73;0.65;;;2.80;93.60;;;;;;5076415;28;20126;-71
2024/02/28 04:54:09;;;;;;;1.48;0.70;;;2.80;93.60;;;;;;5076565;28;20039;-71
2024/02/28 04:56:40;;;;;;;2.17;0.85;;;2.70;93.50;;;;;;5094435;28;20039;-72
2024/02/28 04:59:06;;;;;;;;;;;2.70;93.60;;;;;;5094663;28;20451;-72
2024/02/28 05:01:32;;;;;;;0.93;0.65;;;2.70;93.60;;;;;;5074954;28;19920;-72
2024/02/28 05:03:58;;;;;;;1.17;0.65;;;2.60;93.60;;;;;;5094402;28;20040;-72
2024/02/28 05:06:23;;;;;;;1.02;0.80;;;2.60;93.70;;;;;;5076020;28;20108;-72
2024/02/28 05:08:49;;;;;;;1.05;0.80;;;2.60;93.70;;;;;;5094645;28;20036;-72
2024/02/28 05:11:15;;;;;;;1.15;0.80;;;2.60;93.60;;;;;;5093461;28;20040;-72
2024/02/28 05:13:40;;;;;;;1.02;0.82;;;2.50;93.70;;;;;;5076170;28;20489;-72
2024/02/28 05:16:13;;;;;;;1.75;1.00;;;2.50;93.70;;;;;;5076283;28;20039;-71
2024/02/28 05:18:38;;;;;;;1.48;0.90;;;2.50;93.70;;;;;;5094529;28;20043;-72
2024/02/28 05:21:04;;;;;;;1.23;0.77;;;2.50;93.70;;;;;;5076185;28;20036;-71
2024/02/28 05:23:30;;;;;;;1.95;0.85;;;2.50;93.70;;;;;;5074223;28;20037;-72
2024/02/28 05:25:57;;;;;;;1.98;1.10;;;2.50;93.70;;;;;;5076533;28;20032;-72
2024/02/28 05:28:23;;;;;;;1.50;0.90;;;2.50;93.80;;;;;;5094121;28;20550;-72
2024/02/28 05:30:49;;;;;;;1.42;0.85;;;2.40;93.70;;;;;;5058334;28;20480;-71
2024/02/28 05:33:15;;;;;;;1.85;0.90;;;2.40;93.70;;;;;;5094063;28;20054;-72
2024/02/28 05:35:41;;;;;;;1.95;1.00;;;2.40;93.70;;;;;;5094170;28;20040;-72
2024/02/28 05:38:06;;;;;;;2.17;1.00;;;2.30;93.80;;;;;;5093734;28;20044;-72
2024/02/28 05:40:32;;;;;;;1.98;0.93;;;2.40;93.80;;;;;;5059228;28;20051;-72
2024/02/28 05:43:02;;;;;;;1.88;1.00;;;2.40;93.80;;;;;;5058932;28;20036;-71
2024/02/28 05:45:27;;;;;;;0.70;0.70;;;2.30;93.70;;;;;;5075766;28;20036;-72
2024/02/28 05:47:53;;;;;;;2.08;1.00;;;2.30;93.80;;;;;;5093595;28;20039;-72
2024/02/28 05:50:18;;;;;;;1.98;1.20;;;2.30;93.80;;;;;;5074208;28;20474;-72
2024/02/28 05:52:44;;;;;;;2.67;1.20;;;2.20;93.70;;;;;;5075643;28;20044;-72
2024/02/28 05:55:10;;;;;;;1.20;0.80;;;2.20;93.80;;;;;;5074998;28;20041;-71
2024/02/28 05:57:36;;;;;;;1.60;0.90;;;2.20;93.80;;;;;;5075737;28;20068;-72
2024/02/28 06:00:09;;;;;;;2.08;1.10;;;2.20;93.80;;;;;;5076119;28;20393;-72
2024/02/28 06:02:36;;;;;;;1.45;0.77;;;2.30;93.80;;;;;;5059884;28;20073;-72
2024/02/28 06:05:03;;;;;;;1.33;0.98;;;2.20;93.70;;;;;;5093449;28;20044;-72
2024/02/28 06:07:28;;;;;;;1.02;0.70;;;2.20;93.70;;;;;;5075773;28;20044;-72
2024/02/28 06:09:54;;;;;;;1.00;0.63;;;2.20;93.70;;;;;;5093788;28;20105;-72
2024/02/28 06:12:19;;;;;;;1.05;0.63;;;2.20;93.70;;;;;;5093368;28;20047;-71
2024/02/28 06:14:45;;;;;;;1.67;1.10;;;2.20;93.70;;;;;;5058520;28;20523;-71
2024/02/28 06:17:11;;;;;;;1.13;0.80;;;2.20;93.70;;;;;;5093316;28;20044;-72
2024/02/28 06:19:37;;;;;;;0.85;0.70;;;2.20;93.70;;;;;;5075826;28;20390;-72
2024/02/28 06:22:02;;;;;;;1.15;0.70;;;2.20;93.70;;;;;;5075150;28;20078;-71
2024/02/28 06:24:28;;;;;;;1.83;1.10;;;2.10;93.70;;;;;;5058290;28;20040;-72
2024/02/28 06:26:54;;;;;;;2.00;1.15;;;2.10;93.70;;;;;;5093622;28;20044;-71
2024/02/28 06:29:20;;;;;;;2.47;1.38;;;2.10;93.70;;;;;;5075493;28;20039;-71
2024/02/28 06:31:51;;;;;;;1.42;1.08;;;2.10;93.70;;;;;;5092796;28;20481;-72
2024/02/28 06:34:16;;;;;;;1.17;0.70;;;2.00;93.70;;;;;;5093519;28;20050;-72
2024/02/28 06:36:42;;;;;;;1.02;0.60;;;2.00;93.70;;;;;;5093270;28;20044;-71
2024/02/28 06:39:07;;;;;;;1.73;1.00;;;2.00;93.80;;;;;;5093565;28;20036;-72
2024/02/28 06:41:33;;;;;;;1.60;0.95;;;1.90;93.70;;;;;;5092936;28;20055;-72
2024/02/28 06:43:59;;;;;;;2.38;1.40;;;1.90;93.70;;;;;;5093391;28;20051;-71
2024/02/28 06:46:24;;;;;;;2.00;1.02;;;2.00;93.80;;;;;;5092758;28;20040;-72
2024/02/28 06:48:50;;;;;;;1.73;1.10;;;2.00;93.80;;;;;;5092678;28;20127;-72
2024/02/28 06:51:17;;;;;;;1.25;0.85;;;2.00;93.80;;;;;;5093252;28;20076;-71
2024/02/28 06:53:43;;;;;;;1.65;0.98;;;2.00;93.70;;;;;;5092900;28;20036;-71
2024/02/28 06:56:09;;;;;;;1.35;0.88;;;2.10;93.80;;;;;;5093048;28;20040;-72
2024/02/28 06:58:34;;;;;;;1.45;0.98;;;2.00;93.70;;;;;;5058212;28;20055;-71
2024/02/28 07:01:00;;;;;;;1.83;1.08;;;2.00;93.70;;;;;;5074648;28;20094;-72
2024/02/28 07:03:26;;;;;;;1.55;0.85;;;2.10;93.70;;;;;;5092840;28;20043;-72
2024/02/28 07:05:53;;;;;;;1.15;0.60;;;2.10;93.70;;;;;;5074738;28;20115;-72
2024/02/28 07:08:18;;;;;;;1.48;0.90;;;2.10;93.60;;;;;;5074741;28;20035;-72
2024/02/28 07:10:47;;;;;;;1.42;0.95;;;2.20;93.60;;;;;;5092639;28;20043;-72
2024/02/28 07:13:13;;;;;;;3.40;1.70;;;2.20;93.60;;;;;;5074916;28;20541;-72
2024/02/28 07:15:39;;;;;;;1.30;0.82;;;2.20;93.60;;;;;;5074175;28;20123;-72
2024/02/28 07:18:05;;;;;;;1.92;0.90;;;2.30;93.60;;;;;;5074199;28;20075;-72
2024/02/28 07:20:31;;;;;;;1.52;1.02;;;2.30;93.60;;;;;;5092440;28;20036;-72
2024/02/28 07:22:57;;;;;;;1.02;0.73;;;2.40;93.60;;;;;;5092905;28;20046;-72
2024/02/28 07:25:22;;;;;;;1.05;0.85;;;2.40;93.50;;;;;;5092479;28;20052;-72
2024/02/28 07:27:48;;;;;;;1.40;1.13;;;2.50;93.50;;;;;;5073936;28;20063;-72
2024/02/28 07:30:14;;;;;;;3.13;1.40;;;2.50;93.50;;;;;;5092676;28;20036;-71
2024/02/28 07:32:39;;;;;;;2.13;1.08;;;2.50;93.40;;;;;;5092305;28;20122;-70
2024/02/28 07:35:06;;;;;;;1.17;0.77;;;2.60;93.50;;;;;;5072745;28;20874;-70
2024/02/28 07:37:32;;;;;;;1.25;0.88;;;2.60;93.40;;;;;;5074234;28;20500;-71
2024/02/28 07:39:57;;;;;;;1.08;0.90;;;2.60;93.40;;;;;;5055703;28;20044;-71
2024/02/28 07:42:23;;;;;;;3.60;1.70;;;2.70;93.40;;;;;;5092388;28;20032;-70
2024/02/28 07:44:53;;;;;;;1.48;0.90;;;2.70;93.40;;;;;;5092679;28;20044;-72
2024/02/28 07:47:19;;;;;;;3.00;1.40;;;2.80;93.40;;;;;;5091993;28;20128;-73
2024/02/28 07:49:45;;;;;;;2.30;1.30;;;3.00;93.40;;;;;;5057428;28;20044;-72
2024/02/28 07:52:10;;;;;;;3.40;1.90;;;2.90;93.30;;;;;;5091897;28;20051;-72
2024/02/28 07:54:36;;;;;;;2.08;1.30;;;3.00;93.30;;;;;;5073984;28;20040;-72
2024/02/28 07:57:02;;;;;;;4.85;1.85;;;3.20;93.30;;;;;;5055952;28;20044;-72
2024/02/28 07:59:29;;;;;;;5.15;2.33;;;3.10;93.30;;;;;;5072117;28;20039;-72
2024/02/28 08:01:55;;;;;;;4.43;2.10;;;3.20;93.20;;;;;;5057187;28;20063;-72
2024/02/28 08:04:21;;;;;;;4.60;2.20;;;3.30;93.20;;;;;;5091614;28;20082;-72
2024/02/28 08:06:46;;;;;;;5.57;2.78;;;3.30;93.20;;;;;;5092304;28;20059;-72
2024/02/28 08:09:12;;;;;;;7.70;3.63;;;3.30;93.10;;;;;;5091912;28;20401;-72
2024/02/28 08:11:38;;;;;;;4.35;2.00;;;3.20;93.00;;;;;;5073833;28;20512;-72
2024/02/28 08:14:03;;;;;;;5.38;2.30;;;3.20;93.10;;;;;;5092186;28;20115;-72
2024/02/28 08:16:29;;;;;;;5.18;2.42;;;3.20;93.10;;;;;;5073735;28;20143;-72
2024/02/28 08:18:55;;;;;;;6.78;2.75;;;3.20;93.10;;;;;;5091886;28;20039;-72
2024/02/28 08:21:20;;;;;;;7.57;2.78;;;3.30;93.20;;;;;;5038987;28;20138;-71
2024/02/28 08:23:47;;;;;;;7.65;2.67;;;3.40;93.20;;;;;;5073564;28;20127;-72
2024/02/28 08:26:13;;;;;;;4.57;2.35;;;3.40;93.20;;;;;;5091377;28;20139;-72
2024/02/28 08:28:38;;;;;;;7.00;2.63;;;3.60;93.20;;;;;;5092059;28;20513;-72
2024/02/28 08:31:04;;;;;;;5.68;2.50;;;3.60;93.20;;;;;;5073994;28;20127;-71
2024/02/28 08:33:30;;;;;;;4.18;2.28;;;3.50;93.10;;;;;;5056664;28;20074;-72
2024/02/28 08:35:55;;;;;;;5.18;2.40;;;3.60;93.10;;;;;;5091519;28;20044;-72
2024/02/28 08:38:21;;;;;;;5.72;2.30;;;3.80;93.10;;;;;;5073649;28;20036;-72
2024/02/28 08:40:47;;;;;;;5.85;2.08;;;3.80;93.00;;;;;;5091229;28;20036;-71
2024/02/28 08:43:15;;;;;;;6.10;2.50;;;3.90;93.00;;;;;;5072768;28;20048;-72
2024/02/28 08:45:41;;;;;;;7.32;3.38;;;3.90;93.00;;;;;;5073063;28;20048;-71
2024/02/28 08:48:07;;;;;;;4.95;2.08;;;4.10;93.00;;;;;;5075723;28;20447;-72
2024/02/28 08:50:33;;;;;;;5.10;2.63;;;4.00;92.90;;;;;;5077359;28;20101;-72
2024/02/28 08:52:58;;;;;;;7.35;3.25;;;4.10;93.00;;;;;;5094307;28;20048;-72
2024/02/28 08:55:24;;;;;;;4.05;1.73;;;4.10;93.00;;;;;;5094481;28;20123;-73
2024/02/28 08:57:50;;;;;;;4.68;2.20;;;4.20;92.90;;;;;;5076423;28;20036;-72
2024/02/28 09:00:16;;;;;;;6.40;2.55;;;4.30;93.00;;;;;;5094643;28;20056;-73
2024/02/28 09:02:42;;;;;;;6.30;3.08;;;4.40;92.90;;;;;;5094437;28;20097;-72
2024/02/28 09:05:08;;;;;;;5.32;2.03;;;4.60;92.90;;;;;;5059898;28;20044;-72
2024/02/28 09:07:35;;;;;;;4.60;2.25;;;4.60;92.80;;;;;;5094364;28;20044;-73
2024/02/28 09:10:05;;;;;;;6.07;2.50;;;4.60;92.80;;;;;;5094895;28;20493;-72
2024/02/28 09:12:30;;;;;;;4.60;2.40;;;4.60;92.80;;;;;;5059208;28;20044;-73
2024/02/28 09:14:57;;;;;;;5.00;2.42;;;4.70;92.80;;;;;;5076284;28;20108;-73
2024/02/28 09:17:23;;;;;;;5.60;2.67;;;4.80;92.80;;;;;;5074476;28;20032;-72
2024/02/28 09:19:49;;;;;;;4.63;2.38;;;4.90;92.70;;;;;;5094180;28;20032;-72
2024/02/28 09:22:16;;;;;;;4.68;2.25;;;4.90;92.70;;;;;;5094168;28;20044;-72
2024/02/28 09:24:42;;;;;;;5.03;2.50;;;5.00;92.70;;;;;;5094166;28;20454;-73
2024/02/28 09:27:08;;;;;;;5.00;2.42;;;5.10;92.70;;;;;;5094587;28;20075;-73
2024/02/28 09:29:34;;;;;;;5.30;2.30;;;5.10;92.60;;;;;;5059370;28;20105;-72
2024/02/28 09:31:59;;;;;;;5.00;2.10;;;5.00;92.70;;;;;;5094059;28;20127;-72
2024/02/28 09:34:25;;;;;;;6.63;2.90;;;5.00;92.80;;;;;;5076001;28;20067;-72
2024/02/28 09:36:52;;;;;;;4.82;2.33;;;5.10;92.80;;;;;;5094532;28;20036;-73
2024/02/28 09:39:18;;;;;;;5.97;2.78;;;5.10;92.90;;;;;;5058801;28;20052;-71
2024/02/28 09:41:49;;;;;;;3.83;1.88;;;5.30;92.90;;;;;;5093948;28;20040;-71
2024/02/28 09:44:16;;;;;;;5.90;2.87;;;5.20;92.80;;;;;;5076051;28;20397;-71
2024/02/28 09:46:43;;;;;;;6.45;3.13;;;5.30;92.80;;;;;;5075653;28;20044;-71
2024/02/28 09:49:10;;;;;;;4.07;2.03;;;5.20;92.80;;;;;;5075959;28;20131;-72
2024/02/28 09:51:36;;;;;;;3.95;2.10;;;5.20;92.90;;;;;;5094128;28;20458;-72
2024/02/28 09:54:04;;;;;;;3.13;1.80;;;5.30;92.90;;;;;;5075190;28;20089;-73
2024/02/28 09:56:32;;;;;;;4.93;2.20;;;5.40;92.90;;;;;;5076218;28;20411;-73
2024/02/28 09:58:59;;;;;;;4.35;2.20;;;5.50;92.80;;;;;;5093699;28;20036;-71
2024/02/28 10:01:26;;;;;;;4.03;1.80;;;5.60;92.80;;;;;;5075773;28;20173;-72
2024/02/28 10:03:53;;;;;;;4.93;2.58;;;5.70;92.80;;;;;;5074989;28;20512;-71
2024/02/28 10:06:20;;;;;;;4.82;2.10;;;5.70;92.70;;;;;;5093682;28;20040;-72
2024/02/28 10:08:48;;;;;;;5.55;2.67;;;5.80;92.70;;;;;;5093682;28;20477;-72
2024/02/28 10:11:22;;;;;;;5.85;2.97;;;5.80;92.70;;;;;;5093497;28;20044;-72
2024/02/28 10:13:48;;;;;;;4.95;2.63;;;5.80;92.70;;;;;;5075881;28;20099;-72
2024/02/28 10:16:15;;;;;;;5.00;2.40;;;5.80;92.70;;;;;;5073687;28;20037;-72
2024/02/28 10:18:43;;;;;;;3.78;1.90;;;5.70;92.70;;;;;;5075024;28;20444;-72
2024/02/28 10:21:09;;;;;;;4.05;2.17;;;5.80;92.80;;;;;;5093465;28;20046;-71
2024/02/28 10:23:36;;;;;;;4.78;2.30;;;5.90;92.80;;;;;;5093819;28;20036;-72
2024/02/28 10:26:03;;;;;;;4.80;2.40;;;5.80;92.70;;;;;;5058448;28;20032;-72
2024/02/28 10:28:29;;;;;;;6.10;3.08;;;5.80;92.70;;;;;;5059216;28;20096;-71
2024/02/28 10:30:55;;;;;;;6.15;3.20;;;5.90;92.80;;;;;;5075161;28;20048;-71
2024/02/28 10:33:20;;;;;;;5.70;2.90;;;5.90;92.70;;;;;;5074875;28;20105;-71
2024/02/28 10:35:51;;;;;;;6.47;3.17;;;5.80;92.70;;;;;;5073980;28;20052;-71
2024/02/28 10:38:18;;;;;;;7.45;3.13;;;5.90;92.80;;;;;;5075170;28;20477;-71
2024/02/28 10:40:43;;;;;;;5.65;2.80;;;5.90;92.80;;;;;;5058612;28;20048;-72
2024/02/28 10:43:10;;;;;;;4.07;2.33;;;5.80;92.80;;;;;;5074994;28;20082;-72
2024/02/28 10:45:38;;;;;;;4.00;2.28;;;5.90;92.80;;;;;;5058217;28;20457;-72
2024/02/28 10:48:05;;;;;;;4.28;2.40;;;6.00;92.90;;;;;;5075083;28;20044;-71
2024/02/28 10:50:31;;;;;;;6.35;3.33;;;6.10;92.80;;;;;;5072904;28;20109;-72
2024/02/28 10:53:02;;;;;;;4.93;2.55;;;6.20;92.80;;;;;;5074487;28;20043;-71
2024/02/28 10:55:34;;;;;;;4.18;2.10;;;6.30;92.80;;;;;;5092984;28;20047;-71
2024/02/28 10:58:07;;;;;;;5.55;2.72;;;6.40;92.70;;;;;;5075221;28;20032;-72
2024/02/28 11:00:35;;;;;;;5.50;2.80;;;6.40;92.60;;;;;;5058816;28;20032;-71
2024/02/28 11:03:04;;;;;;;4.10;2.22;;;6.50;92.60;;;;;;5072473;28;20029;-71
2024/02/28 11:05:39;;;;;;;5.65;2.58;;;6.50;92.60;;;;;;5092686;28;20074;-72
2024/02/28 11:08:09;;;;;;;4.30;2.00;;;6.50;92.60;;;;;;5074600;28;20040;-71
2024/02/28 11:10:35;;;;;;;4.82;2.10;;;6.60;92.60;;;;;;5073956;28;20040;-72
2024/02/28 11:13:01;;;;;;;3.17;1.88;;;6.60;92.60;;;;;;5058048;28;20044;-72
2024/02/28 11:15:27;;;;;;;4.78;2.42;;;6.60;92.60;;;;;;5074645;28;20044;-72
2024/02/28 11:17:53;;;;;;;5.00;2.58;;;6.70;92.60;;;;;;5092714;28;20040;-73
2024/02/28 11:20:19;;;;;;;6.18;3.22;;;6.70;92.60;;;;;;5073141;28;20370;-73
2024/02/28 11:22:45;;;;;;;4.68;2.40;;;6.80;92.60;;;;;;5057802;28;20040;-72
2024/02/28 11:25:11;;;;;;;3.70;2.13;;;6.80;92.60;;;;;;5073229;28;20048;-72
2024/02/28 11:27:49;;;;;;;4.43;2.60;;;7.00;92.60;;;;;;5092800;28;20044;-72
2024/02/28 11:30:15;;;;;;;5.10;2.47;;;7.00;92.60;;;;;;5074028;28;20413;-73
2024/02/28 11:32:42;;;;;;;4.63;2.30;;;7.10;92.40;;;;;;5092278;28;20074;-72
2024/02/28 11:35:08;;;;;;;7.38;2.80;;;7.10;92.40;;;;;;5092194;28;20153;-72
2024/02/28 11:37:34;;;;;;;6.15;2.53;;;7.10;92.40;;;;;;5092381;28;20033;-72
2024/02/28 11:40:00;;;;;;;6.20;3.42;;;7.10;92.40;;;;;;5092036;28;20086;-72
2024/02/28 11:42:25;;;;;;;5.25;2.47;;;7.20;92.50;;;;;;5073394;28;20041;-73
2024/02/28 11:44:55;;;;;;;5.05;2.65;;;7.30;92.50;;;;;;5074456;28;20036;-73
2024/02/28 11:47:22;;;;;;;4.80;2.40;;;7.30;92.40;;;;;;5092074;28;20048;-72
2024/02/28 11:49:49;;;;;;;6.00;3.15;;;7.40;92.40;;;;;;5073717;28;20048;-72
2024/02/28 11:52:15;;;;;;;6.15;2.80;;;7.40;92.40;;;;;;5091887;28;20063;-72
2024/02/28 11:54:40;;;;;;;4.53;2.53;;;7.50;92.40;;;;;;5091835;28;20474;-72
2024/02/28 11:57:13;;;;;;;5.00;2.45;;;7.60;92.40;;;;;;5091975;28;20060;-73
2024/02/28 11:59:40;;;;;;;5.53;3.10;;;7.70;92.40;;;;;;5092025;28;20093;-70
2024/02/28 12:02:12;;;;;;;5.90;3.15;;;7.70;92.30;;;;;;5073772;28;20036;-71
2024/02/28 12:04:39;;;;;;;5.82;3.10;;;7.80;92.30;;;;;;5091719;28;20122;-71
2024/02/28 12:07:05;;;;;;;5.50;2.90;;;7.90;92.30;;;;;;5073876;28;20102;-71
2024/02/28 12:09:31;;;;;;;5.80;3.25;;;8.00;92.20;;;;;;5091950;28;20122;-72
2024/02/28 12:12:01;;;;;;;5.18;2.75;;;8.10;92.10;;;;;;5091635;28;20140;-71
2024/02/28 12:14:27;;;;;;;6.28;3.40;;;8.20;92.20;;;;;;5091675;28;20192;-71
2024/02/28 12:16:53;;;;;;;5.45;2.90;;;8.20;92.20;;;;;;5091508;28;20489;-71
2024/02/28 12:19:20;;;;;;;5.47;3.00;;;8.30;92.10;;;;;;5091690;28;20067;-71
2024/02/28 12:21:46;;;;;;;7.05;3.72;;;8.30;92.10;;;;;;5074332;28;20517;-71
2024/02/28 12:24:13;;;;;;;8.10;3.50;;;8.40;92.00;;;;;;5095462;28;20114;-72
2024/02/28 12:26:39;;;;;;;4.78;2.55;;;8.40;92.00;;;;;;5077147;28;20044;-72
2024/02/28 12:29:06;;;;;;;5.97;3.15;;;8.40;92.00;;;;;;5095399;28;20504;-74
2024/02/28 12:31:32;;;;;;;5.72;3.40;;;8.40;92.00;;;;;;5058956;28;20458;-72
2024/02/28 12:33:58;;;;;;;5.18;3.05;;;8.50;92.00;;;;;;5076789;28;20047;-73
2024/02/28 12:36:24;;;;;;;4.40;2.53;;;8.40;92.00;;;;;;5077224;28;20468;-72
2024/02/28 12:38:50;;;;;;;6.38;3.28;;;8.50;92.10;;;;;;5077013;28;20044;-71
2024/02/28 12:41:38;;;;;;;6.00;2.90;;;8.60;92.10;;;;;;5077394;28;20470;-72
2024/02/28 12:44:06;;;;;;;6.78;3.30;;;8.60;92.00;;;;;;5094533;28;20509;-72
2024/02/28 12:46:34;;;;;;;6.38;3.45;;;8.70;92.00;;;;;;5094543;28;20043;-72
2024/02/28 12:49:00;;;;;;;5.18;2.75;;;8.80;92.00;;;;;;5095023;28;20040;-72
2024/02/28 12:51:43;;;;;;;5.57;2.85;;;8.80;91.90;;;;;;5094604;28;20048;-72
2024/02/28 12:54:09;;;;;;;4.93;2.95;;;8.80;91.90;;;;;;5095099;28;20032;-73